• Join FlightAware (Why Join?)
  • Login
  • US Flag 
03:22PM EST


 

Airport Tracker/Info


-or-


 

Live Flight TrackerFlight Track Log ✈ TCF6008 ✈ 24-Apr-2013 ✈ KMKE - KLGA

Flight Track Log - Related Links

Times and Time Zones

All times are in EDT time to prevent confusion due to time zone crossing. See the TCF6008 flight status page for this flight to view local times or setup timezone preferences in your user account.

Time Position Orientation Groundspeed Altitude Reporting Facility
EDT Latitude Longitude Course Direction KTS MPH feet Rate Location/Type
07:48PM 42.9333 -87.9333 200° South 158 182 1,600  Level KMKE
07:50PM 42.8414 -87.8533 147° Southeast 245 282 5,900 2,040 Climbing Chicago Center
07:51PM 42.8875 -87.2545 185° South  Level Estimated
07:51PM 42.7842 -87.7778 136° Southeast 282 325 8,500  Level Chicago Center
07:52PM 42.8720 -87.0940 180° South  Level Estimated
07:52PM 42.7039 -87.7500 166° South 301 346 11,000  Level Chicago Center
07:53PM 42.8564 -86.9337 200° South  Level Estimated
07:53PM 42.6194 -87.7317 171° South 306 352 13,300  Level Chicago Center
07:54PM 42.5233 -87.7097 170° South 315 362 15,800 1,920 Climbing Chicago Center
07:55PM 42.4339 -87.6731 163° South 334 384 17,300 1,500 Climbing Chicago Center
07:56PM 42.3389 -87.6292 161° South 358 412 19,000 1,620 Climbing Chicago Center
07:57PM 42.2422 -87.5853 161° South 365 420 20,700 1,440 Climbing Chicago Center
07:58PM 42.1431 -87.5386 161° South 375 432 22,100 1,620 Climbing Chicago Center
08:00PM 42.0264 -87.4667 155° Southeast 389 448 24,100 1,500 Climbing Chicago Center
08:01PM 41.9764 -87.3292 116° Southeast 420 483 25,200 1,080 Climbing Chicago Center
08:02PM 41.9736 -87.1672 91° East 430 495 26,400 960 Climbing Chicago Center
08:03PM 41.9708 -86.9997 91° East 443 510 27,300 960 Climbing Chicago Center
08:04PM 41.9669 -86.8264 92° East 457 526 28,400 1,020 Climbing Chicago Center
08:05PM 41.9622 -86.6428 92° East 470 541 29,400 900 Climbing Chicago Center
08:06PM 41.9589 -86.4614 91° East 481 554 30,300 840 Climbing Chicago Center
08:07PM 41.9542 -86.2786 92° East 487 560 31,200 900 Climbing Chicago Center
08:08PM 41.9439 -86.0906 94° East 500 575 32,200 840 Climbing Chicago Center
08:09PM 41.9222 -85.8700 97° East 496 571 33,000 360 Climbing Chicago Center
08:10PM 41.9050 -85.6833 97° East 500 575 33,000  Level Chicago Center
08:11PM 41.8869 -85.4944 97° East 504 580 33,000  Level Chicago Center
08:12PM 41.8683 -85.3061 97° East 503 579 33,000  Level Chicago Center
08:13PM 41.8497 -85.1186 98° East 501 577 33,000  Level Chicago Center
08:14PM 41.8367 -84.9592 96° East 510 587 33,000  Level Cleveland Center
08:15PM 41.8164 -84.7767 98° East 505 581 33,000  Level Cleveland Center
08:16PM 41.7961 -84.5858 98° East 505 581 33,000  Level Cleveland Center
08:17PM 41.7756 -84.4008 98° East 505 581 33,000  Level Cleveland Center
08:18PM 41.7614 -84.1939 95° East 505 581 33,000  Level Cleveland Center
08:19PM 41.7506 -84.0039 94° East 505 581 33,000  Level Cleveland Center
08:20PM 41.7350 -83.8139 96° East 510 587 33,000  Level Cleveland Center
08:21PM 41.7236 -83.6242 95° East 510 587 33,000  Level Cleveland Center
08:22PM 41.7078 -83.4314 96° East 510 587 33,000  Level Cleveland Center
08:23PM 41.6956 -83.2417 95° East 510 587 33,000  Level Cleveland Center
08:24PM 41.6850 -83.0689 95° East 519 597 33,000  Level Cleveland Center
08:25PM 41.6681 -82.8792 97° East 524 603 33,000  Level Cleveland Center
08:26PM 41.6550 -82.6869 95° East 519 597 33,000  Level Cleveland Center
08:27PM 41.6400 -82.4781 95° East 519 597 33,000  Level Cleveland Center
08:28PM 41.6261 -82.2917 96° East 514 592 33,000  Level Cleveland Center
08:29PM 41.6119 -82.1217 96° East 514 592 33,000  Level Cleveland Center
08:30PM 41.5956 -81.9269 96° East 521 600 33,000  Level Cleveland Center
08:31PM 41.5769 -81.7378 97° East 521 600 33,000  Level Cleveland Center
08:32PM 41.5619 -81.5461 96° East 521 600 33,000  Level Cleveland Center
08:33PM 41.5447 -81.3378 96° East 521 600 33,000  Level Cleveland Center
08:34PM 41.5269 -81.1517 97° East 516 594 33,000  Level Cleveland Center
08:35PM 41.5092 -80.9603 97° East 516 594 33,000  Level Cleveland Center
08:36PM 41.4908 -80.7717 97° East 516 594 33,000  Level Cleveland Center
08:37PM 41.4742 -80.5803 97° East 521 600 33,000  Level Cleveland Center
08:38PM 41.4553 -80.3892 97° East 521 600 33,000  Level Cleveland Center
08:39PM 41.4383 -80.2064 97° East 527 606 33,000  Level Cleveland Center
08:40PM 41.4186 -80.0100 98° East 532 612 33,000  Level Cleveland Center
08:41PM 41.3964 -79.7914 98° East 538 619 33,000  Level Cleveland Center
08:42PM 41.3783 -79.6119 98° East 543 625 33,000  Level Cleveland Center
08:43PM 41.3578 -79.4131 98° East 543 625 33,000  Level Cleveland Center
08:44PM 41.3347 -79.2006 98° East 536 617 33,000  Level Cleveland Center
08:45PM 41.3111 -79.0019 99° East 536 617 33,000  Level Cleveland Center
08:46PM 41.2942 -78.8253 97° East 536 617 33,000  Level Cleveland Center
08:47PM 41.2722 -78.6297 98° East 541 623 33,000  Level Cleveland Center
08:49PM 41.2189 -78.1886 99° East 530 610 33,000  Level New York Center
08:50PM 41.1969 -78.0014 99° East 522 601 33,000  Level New York Center
08:51PM 41.1731 -77.8114 99° East 522 601 33,000  Level New York Center
08:52PM 41.1486 -77.6214 100° East 522 601 33,000  Level New York Center
08:53PM 41.1242 -77.4314 100° East 522 601 33,000 -840 Level New York Center
08:54PM 41.1006 -77.2531 100° East 509 586 31,400 -1,920 Descending New York Center
08:55PM 41.0750 -77.0717 101° East 503 579 29,200 -2,220 Descending New York Center
08:56PM 41.0511 -76.8903 100° East 503 579 27,000 -2,160 Descending New York Center
08:57PM 41.0267 -76.7150 100° East 491 565 24,800 -2,100 Descending New York Center
08:58PM 40.9936 -76.5442 104° East 480 552 22,800 -2,040 Descending New York Center
08:59PM 40.9531 -76.3869 109° East 467 537 20,800 -1,980 Descending New York Center
09:00PM 40.9186 -76.2358 107° East 452 520 19,000 -1,740 Descending New York Center
09:01PM 40.8872 -76.1014 107° East 428 493 17,400 -1,980 Descending New York Center
09:02PM 40.8483 -75.9447 108° East 417 480 15,100 -2,220 Descending New York Center
09:03PM 40.8128 -75.7994 108° East 412 474 13,000 -1,140 Descending New York Center
09:04PM 40.7769 -75.6625 109° East 404 465 12,900 -60 Descending New York Center
09:05PM 40.7453 -75.5233 107° East 404 465 12,900  Level New York Center
09:06PM 40.7111 -75.3814 108° East 404 465 12,900 -180 Level New York Center
09:07PM 40.6833 -75.2400 104° East 404 465 12,600 -900 Descending New York Center
09:08PM 40.6422 -75.1142 113° Southeast 397 457 11,200 -1,260 Descending New York Center
09:09PM 40.5828 -75.0311 133° Southeast 346 398 10,100 -660 Descending New York Center
09:10PM 40.5444 -74.9306 117° Southeast 325 374 9,900  Descending New York Center
09:11PM 40.5167 -74.8167 108° East 317 365 10,100 60 Climbing New York TRACON
09:12PM 40.4833 -74.7000 111° Southeast 314 361 10,100 -60 Level New York TRACON
09:13PM 40.4500 -74.6000 114° Southeast 318 366 10,000 -60 Descending New York TRACON
09:14PM 40.4500 -74.4833 90° East 341 392 10,000 -60 Level New York TRACON
09:15PM 40.4833 -74.3667 69° East 340 391 9,900 -720 Descending New York TRACON
09:16PM 40.5000 -74.2500 79° East 330 380 8,600 -1,080 Descending New York TRACON
09:17PM 40.5333 -74.1333 69° East 298 343 7,800 -720 Descending New York TRACON
09:18PM 40.5667 -74.0500 62° Northeast 282 325 7,200 -900 Descending New York TRACON
09:19PM 40.6333 -74.0167 21° North 249 287 6,000 -1,500 Descending New York TRACON
09:20PM 40.7000 -74.0167 360° North 246 283 4,300 -960 Descending New York TRACON
09:21PM 40.7667 -74.0000 11° North 236 272 4,100 -300 Descending New York TRACON
09:22PM 40.8167 -73.9500 37° Northeast 230 265 3,800 -600 Descending New York TRACON
09:23PM 40.8833 -73.9167 21° North 225 259 3,000 -420 Descending New York TRACON
09:24PM 40.9333 -73.8667 37° Northeast 221 254 3,000  Level New York TRACON
09:25PM 40.9833 -73.9167 323° Northwest 184 212 3,000 -240 Level New York TRACON
09:26PM 41.0167 -73.9500 323° Northwest 182 209 2,600 -540 Descending New York TRACON
09:27PM 41.0167 -74.0167 270° West 174 200 2,000 -180 Descending New York TRACON
09:29PM 40.8490 -73.9157 180° South  Level Estimated
09:29PM 40.9500 -74.0833 180° South 163 188 2,100  Level New York TRACON
09:30PM 40.9000 -74.0667 166° South 179 206 2,100  Level New York TRACON
09:31PM 40.8667 -74.0333 143° Southeast 177 204 2,100 -120 Level New York TRACON
09:32PM 40.8333 -73.9833 131° Southeast 185 213 1,900 -600 Descending New York TRACON
09:33PM 40.8000 -73.9333 131° Southeast 144 166 1,000 -900 Descending New York TRACON